Terminal Aerodrome Forecast
Issued by NWS

Home | Current Version | Previous Version | Text Only | Print | Product List | Glossary On
Versions: 1 2 3 4 5 6 7 8 9 10 11 12 13 14
000
FTUS42 TJSJ 280700 RRA
TAFNCM
TAF
TNCM 280731Z 2808/2906 10009KT P6SM VCSH SCT018
     FM281500 10014G25KT P6SM SCT020
     FM282000 10010KT P6SM VCSH SCT018=

USA.gov is the U.S. government's official web portal to all federal, state and local government web resources and services.